Weather at Gimpo International Airport

Public forecast

Using degrees Celsius for public forecast. Weather courtesy of forecast.io.

Current aviation weather report (METAR) for Gimpo International Airport

Retrieved 2021/07/23 21:00 UTC (50 minutes ago):

RKSS 232100Z 04002KT CAVOK 25/23 Q1009 NOSIG

Aviation forecast (TAF) for Gimpo International Airport

Retrieved 2021/07/23 18:00 UTC (4 hours ago):

TAF RKSS 231700Z 2318/2424 34005KT CAVOK TN25/2320Z TX36/2406Z TN25/2420Z TEMPO 2321/2401 12005KT BECMG 2401/2402 06005KT TEMPO 2405/2411 28006KT 9999 SCT030 BECMG 2412/2413 34005KT BECMG 2420/2421 11005KT